sensor_id;sensor_type;location;lat;lon;timestamp;P1;durP1;ratioP1;P2;durP2;ratioP2
51124;SDS011;37163;55.556;39.108;2023-12-22T00:02:18;1.40;;;0.63;;
51124;SDS011;37163;55.556;39.108;2023-12-22T00:04:43;0.45;;;0.20;;
51124;SDS011;37163;55.556;39.108;2023-12-22T00:07:09;1.63;;;0.77;;
51124;SDS011;37163;55.556;39.108;2023-12-22T00:09:35;0.63;;;0.10;;
51124;SDS011;37163;55.556;39.108;2023-12-22T00:12:00;0.73;;;0.60;;
51124;SDS011;37163;55.556;39.108;2023-12-22T00:14:26;0.57;;;0.22;;
51124;SDS011;37163;55.556;39.108;2023-12-22T00:16:52;0.73;;;0.30;;
51124;SDS011;37163;55.556;39.108;2023-12-22T00:19:17;0.43;;;0.30;;
51124;SDS011;37163;55.556;39.108;2023-12-22T00:21:43;0.47;;;0.20;;
51124;SDS011;37163;55.556;39.108;2023-12-22T00:24:08;0.45;;;0.20;;
51124;SDS011;37163;55.556;39.108;2023-12-22T00:26:34;0.38;;;0.17;;
51124;SDS011;37163;55.556;39.108;2023-12-22T00:28:59;0.30;;;0.30;;
51124;SDS011;37163;55.556;39.108;2023-12-22T00:31:25;0.75;;;0.38;;
51124;SDS011;37163;55.556;39.108;2023-12-22T00:33:51;0.50;;;0.10;;
51124;SDS011;37163;55.556;39.108;2023-12-22T00:36:16;0.75;;;0.22;;
51124;SDS011;37163;55.556;39.108;2023-12-22T00:38:44;0.55;;;0.20;;
51124;SDS011;37163;55.556;39.108;2023-12-22T00:41:10;1.30;;;0.40;;
51124;SDS011;37163;55.556;39.108;2023-12-22T00:43:35;0.50;;;0.22;;
51124;SDS011;37163;55.556;39.108;2023-12-22T00:46:01;0.45;;;0.20;;
51124;SDS011;37163;55.556;39.108;2023-12-22T00:48:27;0.40;;;0.10;;
51124;SDS011;37163;55.556;39.108;2023-12-22T00:50:53;0.95;;;0.10;;
51124;SDS011;37163;55.556;39.108;2023-12-22T00:53:19;0.40;;;0.17;;
51124;SDS011;37163;55.556;39.108;2023-12-22T00:55:44;0.35;;;0.17;;
51124;SDS011;37163;55.556;39.108;2023-12-22T00:58:11;0.22;;;0.20;;
51124;SDS011;37163;55.556;39.108;2023-12-22T01:00:36;0.85;;;0.25;;
51124;SDS011;37163;55.556;39.108;2023-12-22T01:03:02;0.57;;;0.40;;
51124;SDS011;37163;55.556;39.108;2023-12-22T01:05:28;0.90;;;0.47;;
51124;SDS011;37163;55.556;39.108;2023-12-22T01:07:53;0.60;;;0.20;;
51124;SDS011;37163;55.556;39.108;2023-12-22T01:10:19;0.57;;;0.28;;
51124;SDS011;37163;55.556;39.108;2023-12-22T01:12:45;0.77;;;0.40;;
51124;SDS011;37163;55.556;39.108;2023-12-22T01:15:10;0.95;;;0.30;;
51124;SDS011;37163;55.556;39.108;2023-12-22T01:17:36;0.30;;;0.30;;
51124;SDS011;37163;55.556;39.108;2023-12-22T01:20:02;0.57;;;0.30;;
51124;SDS011;37163;55.556;39.108;2023-12-22T01:22:29;0.50;;;0.22;;
51124;SDS011;37163;55.556;39.108;2023-12-22T01:24:57;0.60;;;0.20;;
51124;SDS011;37163;55.556;39.108;2023-12-22T01:27:23;0.30;;;0.20;;
51124;SDS011;37163;55.556;39.108;2023-12-22T01:29:48;0.43;;;0.30;;
51124;SDS011;37163;55.556;39.108;2023-12-22T01:32:14;0.50;;;0.38;;
51124;SDS011;37163;55.556;39.108;2023-12-22T01:34:40;1.05;;;0.50;;
51124;SDS011;37163;55.556;39.108;2023-12-22T01:37:05;0.63;;;0.38;;
51124;SDS011;37163;55.556;39.108;2023-12-22T01:39:31;0.85;;;0.43;;
51124;SDS011;37163;55.556;39.108;2023-12-22T01:41:57;0.75;;;0.38;;
51124;SDS011;37163;55.556;39.108;2023-12-22T01:44:22;0.85;;;0.43;;
51124;SDS011;37163;55.556;39.108;2023-12-22T01:46:49;0.98;;;0.40;;
51124;SDS011;37163;55.556;39.108;2023-12-22T01:49:15;0.85;;;0.30;;
51124;SDS011;37163;55.556;39.108;2023-12-22T01:51:41;0.63;;;0.20;;
51124;SDS011;37163;55.556;39.108;2023-12-22T01:54:07;0.75;;;0.40;;
51124;SDS011;37163;55.556;39.108;2023-12-22T01:56:33;0.93;;;0.50;;
51124;SDS011;37163;55.556;39.108;2023-12-22T01:58:59;2.30;;;0.85;;
51124;SDS011;37163;55.556;39.108;2023-12-22T02:01:26;1.13;;;0.60;;
51124;SDS011;37163;55.556;39.108;2023-12-22T02:03:52;1.17;;;0.50;;
51124;SDS011;37163;55.556;39.108;2023-12-22T02:06:19;2.47;;;0.68;;
51124;SDS011;37163;55.556;39.108;2023-12-22T02:08:48;0.20;;;0.15;;
51124;SDS011;37163;55.556;39.108;2023-12-22T02:11:14;0.35;;;0.30;;
51124;SDS011;37163;55.556;39.108;2023-12-22T02:13:40;0.57;;;0.45;;
51124;SDS011;37163;55.556;39.108;2023-12-22T02:18:41;0.75;;;0.57;;
51124;SDS011;37163;55.556;39.108;2023-12-22T02:21:08;0.88;;;0.40;;
51124;SDS011;37163;55.556;39.108;2023-12-22T02:23:34;0.30;;;0.30;;
51124;SDS011;37163;55.556;39.108;2023-12-22T02:26:04;0.85;;;0.38;;
51124;SDS011;37163;55.556;39.108;2023-12-22T02:28:31;0.77;;;0.40;;
51124;SDS011;37163;55.556;39.108;2023-12-22T02:35:58;0.38;;;0.30;;
51124;SDS011;37163;55.556;39.108;2023-12-22T02:38:28;1.17;;;0.63;;
51124;SDS011;37163;55.556;39.108;2023-12-22T02:40:54;1.08;;;0.52;;
51124;SDS011;37163;55.556;39.108;2023-12-22T02:43:20;1.65;;;0.75;;
51124;SDS011;37163;55.556;39.108;2023-12-22T02:45:49;0.95;;;0.40;;
51124;SDS011;37163;55.556;39.108;2023-12-22T02:48:15;2.05;;;0.95;;
51124;SDS011;37163;55.556;39.108;2023-12-22T02:50:41;1.95;;;0.77;;
51124;SDS011;37163;55.556;39.108;2023-12-22T02:53:06;3.05;;;1.00;;
51124;SDS011;37163;55.556;39.108;2023-12-22T02:55:32;4.40;;;2.13;;
51124;SDS011;37163;55.556;39.108;2023-12-22T02:57:57;2.90;;;1.33;;
51124;SDS011;37163;55.556;39.108;2023-12-22T03:00:23;4.15;;;1.92;;
51124;SDS011;37163;55.556;39.108;2023-12-22T03:02:49;4.22;;;1.83;;
51124;SDS011;37163;55.556;39.108;2023-12-22T03:05:14;4.72;;;2.05;;
51124;SDS011;37163;55.556;39.108;2023-12-22T03:07:40;4.05;;;1.40;;
51124;SDS011;37163;55.556;39.108;2023-12-22T03:10:06;2.22;;;1.10;;
51124;SDS011;37163;55.556;39.108;2023-12-22T03:12:31;2.03;;;1.20;;
51124;SDS011;37163;55.556;39.108;2023-12-22T03:14:57;1.25;;;0.73;;
51124;SDS011;37163;55.556;39.108;2023-12-22T03:17:23;1.63;;;0.68;;
51124;SDS011;37163;55.556;39.108;2023-12-22T03:19:48;1.20;;;0.65;;
51124;SDS011;37163;55.556;39.108;2023-12-22T03:22:14;1.48;;;0.70;;
51124;SDS011;37163;55.556;39.108;2023-12-22T03:24:39;2.13;;;1.13;;
51124;SDS011;37163;55.556;39.108;2023-12-22T03:27:05;1.50;;;0.65;;
51124;SDS011;37163;55.556;39.108;2023-12-22T03:29:31;0.65;;;0.32;;
51124;SDS011;37163;55.556;39.108;2023-12-22T03:31:56;1.00;;;0.50;;
51124;SDS011;37163;55.556;39.108;2023-12-22T03:34:22;0.60;;;0.40;;
51124;SDS011;37163;55.556;39.108;2023-12-22T03:36:48;1.23;;;0.50;;
51124;SDS011;37163;55.556;39.108;2023-12-22T03:39:14;2.25;;;1.15;;
51124;SDS011;37163;55.556;39.108;2023-12-22T03:41:40;1.73;;;0.85;;
51124;SDS011;37163;55.556;39.108;2023-12-22T03:44:06;0.70;;;0.40;;
51124;SDS011;37163;55.556;39.108;2023-12-22T03:46:32;1.60;;;0.70;;
51124;SDS011;37163;55.556;39.108;2023-12-22T03:48:58;0.70;;;0.57;;
51124;SDS011;37163;55.556;39.108;2023-12-22T03:51:24;1.35;;;0.50;;
51124;SDS011;37163;55.556;39.108;2023-12-22T03:53:49;1.88;;;0.50;;
51124;SDS011;37163;55.556;39.108;2023-12-22T03:56:15;1.85;;;0.95;;
51124;SDS011;37163;55.556;39.108;2023-12-22T03:58:40;1.52;;;0.88;;
51124;SDS011;37163;55.556;39.108;2023-12-22T04:01:06;1.55;;;0.70;;
51124;SDS011;37163;55.556;39.108;2023-12-22T04:03:33;1.50;;;0.70;;
51124;SDS011;37163;55.556;39.108;2023-12-22T04:06:02;1.45;;;0.65;;
51124;SDS011;37163;55.556;39.108;2023-12-22T04:08:28;1.50;;;0.70;;
51124;SDS011;37163;55.556;39.108;2023-12-22T04:10:53;0.95;;;0.70;;
51124;SDS011;37163;55.556;39.108;2023-12-22T04:13:19;2.35;;;0.73;;
51124;SDS011;37163;55.556;39.108;2023-12-22T04:15:45;1.13;;;0.60;;
51124;SDS011;37163;55.556;39.108;2023-12-22T04:18:10;1.90;;;0.88;;
51124;SDS011;37163;55.556;39.108;2023-12-22T04:20:36;1.60;;;0.88;;
51124;SDS011;37163;55.556;39.108;2023-12-22T04:23:02;1.73;;;0.85;;
51124;SDS011;37163;55.556;39.108;2023-12-22T04:25:27;2.45;;;1.33;;
51124;SDS011;37163;55.556;39.108;2023-12-22T04:27:53;1.85;;;0.90;;
51124;SDS011;37163;55.556;39.108;2023-12-22T04:30:18;2.10;;;1.20;;
51124;SDS011;37163;55.556;39.108;2023-12-22T04:32:44;2.15;;;0.80;;
51124;SDS011;37163;55.556;39.108;2023-12-22T04:35:10;4.20;;;1.80;;
51124;SDS011;37163;55.556;39.108;2023-12-22T04:37:35;2.13;;;1.00;;
51124;SDS011;37163;55.556;39.108;2023-12-22T04:40:01;2.75;;;1.30;;
51124;SDS011;37163;55.556;39.108;2023-12-22T04:42:30;2.33;;;1.05;;
51124;SDS011;37163;55.556;39.108;2023-12-22T04:44:55;2.22;;;1.15;;
51124;SDS011;37163;55.556;39.108;2023-12-22T04:47:21;1.15;;;0.80;;
51124;SDS011;37163;55.556;39.108;2023-12-22T04:49:47;2.15;;;1.10;;
51124;SDS011;37163;55.556;39.108;2023-12-22T04:52:12;2.15;;;0.77;;
51124;SDS011;37163;55.556;39.108;2023-12-22T04:54:38;3.22;;;1.50;;
51124;SDS011;37163;55.556;39.108;2023-12-22T04:57:04;3.45;;;1.63;;
51124;SDS011;37163;55.556;39.108;2023-12-22T04:59:29;5.50;;;2.00;;
51124;SDS011;37163;55.556;39.108;2023-12-22T05:01:55;3.25;;;1.70;;
51124;SDS011;37163;55.556;39.108;2023-12-22T05:04:20;4.03;;;2.00;;
51124;SDS011;37163;55.556;39.108;2023-12-22T05:06:47;5.35;;;2.72;;
51124;SDS011;37163;55.556;39.108;2023-12-22T05:09:13;3.78;;;2.08;;
51124;SDS011;37163;55.556;39.108;2023-12-22T05:11:39;3.67;;;1.75;;
51124;SDS011;37163;55.556;39.108;2023-12-22T05:14:04;2.90;;;1.20;;
51124;SDS011;37163;55.556;39.108;2023-12-22T05:16:30;3.47;;;1.52;;
51124;SDS011;37163;55.556;39.108;2023-12-22T05:19:00;3.50;;;1.70;;
51124;SDS011;37163;55.556;39.108;2023-12-22T05:21:25;3.03;;;1.35;;
51124;SDS011;37163;55.556;39.108;2023-12-22T05:23:53;1.92;;;1.00;;
51124;SDS011;37163;55.556;39.108;2023-12-22T05:26:19;3.40;;;1.45;;
51124;SDS011;37163;55.556;39.108;2023-12-22T05:28:45;3.72;;;1.70;;
51124;SDS011;37163;55.556;39.108;2023-12-22T05:31:10;3.38;;;1.90;;
51124;SDS011;37163;55.556;39.108;2023-12-22T05:33:36;5.05;;;2.33;;
51124;SDS011;37163;55.556;39.108;2023-12-22T05:36:02;2.75;;;1.50;;
51124;SDS011;37163;55.556;39.108;2023-12-22T05:38:28;2.97;;;1.30;;
51124;SDS011;37163;55.556;39.108;2023-12-22T05:40:54;3.25;;;1.60;;
51124;SDS011;37163;55.556;39.108;2023-12-22T05:43:19;1.48;;;0.77;;
51124;SDS011;37163;55.556;39.108;2023-12-22T05:45:45;2.92;;;1.48;;
51124;SDS011;37163;55.556;39.108;2023-12-22T05:48:11;2.08;;;1.10;;
51124;SDS011;37163;55.556;39.108;2023-12-22T05:50:36;3.33;;;1.33;;
51124;SDS011;37163;55.556;39.108;2023-12-22T05:53:02;3.83;;;1.70;;
51124;SDS011;37163;55.556;39.108;2023-12-22T05:55:28;2.85;;;1.23;;
51124;SDS011;37163;55.556;39.108;2023-12-22T05:57:54;3.45;;;1.50;;
51124;SDS011;37163;55.556;39.108;2023-12-22T06:00:21;3.33;;;1.30;;
51124;SDS011;37163;55.556;39.108;2023-12-22T06:02:46;2.45;;;1.13;;
51124;SDS011;37163;55.556;39.108;2023-12-22T06:05:12;3.22;;;1.60;;
51124;SDS011;37163;55.556;39.108;2023-12-22T06:07:39;3.08;;;1.48;;
51124;SDS011;37163;55.556;39.108;2023-12-22T06:10:05;1.63;;;0.90;;
51124;SDS011;37163;55.556;39.108;2023-12-22T06:12:32;1.98;;;1.00;;
51124;SDS011;37163;55.556;39.108;2023-12-22T06:14:58;2.88;;;1.40;;
51124;SDS011;37163;55.556;39.108;2023-12-22T06:17:23;1.83;;;0.90;;
51124;SDS011;37163;55.556;39.108;2023-12-22T06:19:49;3.42;;;1.63;;
51124;SDS011;37163;55.556;39.108;2023-12-22T06:22:15;2.92;;;1.27;;
51124;SDS011;37163;55.556;39.108;2023-12-22T06:24:40;2.15;;;1.10;;
51124;SDS011;37163;55.556;39.108;2023-12-22T06:27:06;2.55;;;1.38;;
51124;SDS011;37163;55.556;39.108;2023-12-22T06:29:33;2.95;;;2.00;;
51124;SDS011;37163;55.556;39.108;2023-12-22T06:31:59;1.90;;;0.93;;
51124;SDS011;37163;55.556;39.108;2023-12-22T06:34:24;3.38;;;1.77;;
51124;SDS011;37163;55.556;39.108;2023-12-22T06:36:51;3.55;;;1.58;;
51124;SDS011;37163;55.556;39.108;2023-12-22T06:39:16;6.22;;;2.92;;
51124;SDS011;37163;55.556;39.108;2023-12-22T06:41:42;6.03;;;3.08;;
51124;SDS011;37163;55.556;39.108;2023-12-22T06:44:08;3.97;;;2.50;;
51124;SDS011;37163;55.556;39.108;2023-12-22T06:46:36;5.03;;;2.60;;
51124;SDS011;37163;55.556;39.108;2023-12-22T06:49:01;5.30;;;2.85;;
51124;SDS011;37163;55.556;39.108;2023-12-22T06:51:27;4.05;;;1.88;;
51124;SDS011;37163;55.556;39.108;2023-12-22T06:53:54;4.65;;;2.17;;
51124;SDS011;37163;55.556;39.108;2023-12-22T06:56:24;3.65;;;1.67;;
51124;SDS011;37163;55.556;39.108;2023-12-22T06:58:50;4.45;;;2.55;;
51124;SDS011;37163;55.556;39.108;2023-12-22T07:01:24;2.88;;;1.60;;
51124;SDS011;37163;55.556;39.108;2023-12-22T07:03:50;3.03;;;1.50;;
51124;SDS011;37163;55.556;39.108;2023-12-22T07:06:16;3.22;;;1.70;;
51124;SDS011;37163;55.556;39.108;2023-12-22T07:08:42;3.13;;;1.45;;
51124;SDS011;37163;55.556;39.108;2023-12-22T07:11:08;3.30;;;1.42;;
51124;SDS011;37163;55.556;39.108;2023-12-22T07:13:34;3.40;;;1.60;;
51124;SDS011;37163;55.556;39.108;2023-12-22T07:16:00;3.03;;;1.48;;
51124;SDS011;37163;55.556;39.108;2023-12-22T07:18:27;4.22;;;2.35;;
51124;SDS011;37163;55.556;39.108;2023-12-22T07:20:59;3.33;;;1.77;;
51124;SDS011;37163;55.556;39.108;2023-12-22T07:23:24;3.33;;;1.88;;
51124;SDS011;37163;55.556;39.108;2023-12-22T07:25:50;2.72;;;1.30;;
51124;SDS011;37163;55.556;39.108;2023-12-22T07:28:16;3.55;;;1.60;;
51124;SDS011;37163;55.556;39.108;2023-12-22T07:30:42;4.35;;;2.47;;
51124;SDS011;37163;55.556;39.108;2023-12-22T07:33:07;2.97;;;1.45;;
51124;SDS011;37163;55.556;39.108;2023-12-22T07:35:33;2.78;;;1.20;;
51124;SDS011;37163;55.556;39.108;2023-12-22T07:37:59;2.75;;;1.33;;
51124;SDS011;37163;55.556;39.108;2023-12-22T07:40:25;2.25;;;1.08;;
51124;SDS011;37163;55.556;39.108;2023-12-22T07:42:51;3.42;;;2.03;;
51124;SDS011;37163;55.556;39.108;2023-12-22T07:45:17;3.42;;;1.80;;
51124;SDS011;37163;55.556;39.108;2023-12-22T07:47:42;4.00;;;1.85;;
51124;SDS011;37163;55.556;39.108;2023-12-22T07:50:08;3.05;;;1.70;;
51124;SDS011;37163;55.556;39.108;2023-12-22T07:52:34;4.35;;;1.98;;
51124;SDS011;37163;55.556;39.108;2023-12-22T07:55:04;5.18;;;2.55;;
51124;SDS011;37163;55.556;39.108;2023-12-22T07:57:30;4.10;;;2.10;;
51124;SDS011;37163;55.556;39.108;2023-12-22T07:59:55;3.67;;;1.70;;
51124;SDS011;37163;55.556;39.108;2023-12-22T08:02:21;3.88;;;2.05;;
51124;SDS011;37163;55.556;39.108;2023-12-22T08:04:48;3.95;;;2.60;;
51124;SDS011;37163;55.556;39.108;2023-12-22T08:07:14;4.57;;;2.33;;
51124;SDS011;37163;55.556;39.108;2023-12-22T08:09:40;3.90;;;1.80;;
51124;SDS011;37163;55.556;39.108;2023-12-22T08:12:06;4.80;;;2.80;;
51124;SDS011;37163;55.556;39.108;2023-12-22T08:14:32;4.35;;;2.33;;
51124;SDS011;37163;55.556;39.108;2023-12-22T08:16:57;3.63;;;1.85;;
51124;SDS011;37163;55.556;39.108;2023-12-22T08:19:23;4.13;;;2.03;;
51124;SDS011;37163;55.556;39.108;2023-12-22T08:21:48;4.18;;;2.35;;
51124;SDS011;37163;55.556;39.108;2023-12-22T08:24:14;5.45;;;2.92;;
51124;SDS011;37163;55.556;39.108;2023-12-22T08:26:40;4.00;;;2.15;;
51124;SDS011;37163;55.556;39.108;2023-12-22T08:29:05;3.95;;;2.03;;
51124;SDS011;37163;55.556;39.108;2023-12-22T08:31:32;4.57;;;2.08;;
51124;SDS011;37163;55.556;39.108;2023-12-22T08:33:58;3.00;;;1.75;;
51124;SDS011;37163;55.556;39.108;2023-12-22T08:36:24;3.85;;;1.75;;
51124;SDS011;37163;55.556;39.108;2023-12-22T08:38:50;4.00;;;2.03;;
51124;SDS011;37163;55.556;39.108;2023-12-22T08:41:15;4.50;;;2.55;;
51124;SDS011;37163;55.556;39.108;2023-12-22T08:43:41;3.30;;;1.70;;
51124;SDS011;37163;55.556;39.108;2023-12-22T08:46:07;2.92;;;1.48;;
51124;SDS011;37163;55.556;39.108;2023-12-22T08:48:35;3.90;;;1.73;;
51124;SDS011;37163;55.556;39.108;2023-12-22T08:51:00;3.47;;;1.77;;
51124;SDS011;37163;55.556;39.108;2023-12-22T08:53:26;3.17;;;1.55;;
51124;SDS011;37163;55.556;39.108;2023-12-22T08:55:55;3.45;;;1.08;;
51124;SDS011;37163;55.556;39.108;2023-12-22T08:58:22;3.03;;;1.35;;
51124;SDS011;37163;55.556;39.108;2023-12-22T09:00:47;3.17;;;1.55;;
51124;SDS011;37163;55.556;39.108;2023-12-22T09:03:13;2.60;;;1.13;;
51124;SDS011;37163;55.556;39.108;2023-12-22T09:05:39;2.53;;;1.10;;
51124;SDS011;37163;55.556;39.108;2023-12-22T09:08:04;1.42;;;1.00;;
51124;SDS011;37163;55.556;39.108;2023-12-22T09:10:31;4.32;;;2.30;;
51124;SDS011;37163;55.556;39.108;2023-12-22T09:12:58;3.60;;;1.63;;
51124;SDS011;37163;55.556;39.108;2023-12-22T09:15:23;2.90;;;1.33;;
51124;SDS011;37163;55.556;39.108;2023-12-22T09:17:49;3.42;;;1.30;;
51124;SDS011;37163;55.556;39.108;2023-12-22T09:20:17;2.05;;;1.40;;
51124;SDS011;37163;55.556;39.108;2023-12-22T09:22:42;2.03;;;1.10;;
51124;SDS011;37163;55.556;39.108;2023-12-22T09:25:08;2.40;;;1.30;;
51124;SDS011;37163;55.556;39.108;2023-12-22T09:27:34;2.63;;;1.20;;
51124;SDS011;37163;55.556;39.108;2023-12-22T09:29:59;2.38;;;0.98;;
51124;SDS011;37163;55.556;39.108;2023-12-22T09:32:25;2.25;;;1.05;;
51124;SDS011;37163;55.556;39.108;2023-12-22T09:34:52;3.33;;;1.90;;
51124;SDS011;37163;55.556;39.108;2023-12-22T09:37:17;4.45;;;2.40;;
51124;SDS011;37163;55.556;39.108;2023-12-22T09:39:43;2.88;;;1.70;;
51124;SDS011;37163;55.556;39.108;2023-12-22T09:42:09;4.05;;;2.13;;
51124;SDS011;37163;55.556;39.108;2023-12-22T09:44:34;3.92;;;1.55;;
51124;SDS011;37163;55.556;39.108;2023-12-22T09:47:03;2.60;;;1.50;;
51124;SDS011;37163;55.556;39.108;2023-12-22T09:49:29;3.38;;;1.52;;
51124;SDS011;37163;55.556;39.108;2023-12-22T09:51:54;3.13;;;1.50;;
51124;SDS011;37163;55.556;39.108;2023-12-22T09:54:20;2.65;;;1.33;;
51124;SDS011;37163;55.556;39.108;2023-12-22T09:56:46;1.83;;;0.98;;
51124;SDS011;37163;55.556;39.108;2023-12-22T09:59:12;3.03;;;1.60;;
51124;SDS011;37163;55.556;39.108;2023-12-22T10:01:40;2.17;;;1.00;;
51124;SDS011;37163;55.556;39.108;2023-12-22T10:04:08;2.50;;;1.17;;
51124;SDS011;37163;55.556;39.108;2023-12-22T10:06:33;1.55;;;0.80;;
51124;SDS011;37163;55.556;39.108;2023-12-22T10:08:59;2.75;;;1.65;;
51124;SDS011;37163;55.556;39.108;2023-12-22T10:11:25;4.15;;;2.45;;
51124;SDS011;37163;55.556;39.108;2023-12-22T10:13:51;4.15;;;1.90;;
51124;SDS011;37163;55.556;39.108;2023-12-22T10:16:18;3.90;;;2.13;;
51124;SDS011;37163;55.556;39.108;2023-12-22T10:18:43;2.83;;;1.38;;
51124;SDS011;37163;55.556;39.108;2023-12-22T10:21:09;3.25;;;1.80;;
51124;SDS011;37163;55.556;39.108;2023-12-22T10:23:35;4.05;;;1.70;;
51124;SDS011;37163;55.556;39.108;2023-12-22T10:26:00;2.47;;;1.63;;
51124;SDS011;37163;55.556;39.108;2023-12-22T10:28:29;2.50;;;1.33;;
51124;SDS011;37163;55.556;39.108;2023-12-22T10:30:55;3.05;;;1.50;;
51124;SDS011;37163;55.556;39.108;2023-12-22T10:33:22;3.08;;;1.40;;
51124;SDS011;37163;55.556;39.108;2023-12-22T10:35:48;2.92;;;1.92;;
51124;SDS011;37163;55.556;39.108;2023-12-22T10:38:17;5.13;;;2.35;;
51124;SDS011;37163;55.556;39.108;2023-12-22T10:40:43;4.03;;;1.70;;
51124;SDS011;37163;55.556;39.108;2023-12-22T10:43:10;3.88;;;1.98;;
51124;SDS011;37163;55.556;39.108;2023-12-22T10:45:36;3.03;;;1.40;;
51124;SDS011;37163;55.556;39.108;2023-12-22T10:48:01;3.80;;;1.80;;
51124;SDS011;37163;55.556;39.108;2023-12-22T10:50:27;5.20;;;2.42;;
51124;SDS011;37163;55.556;39.108;2023-12-22T10:52:53;3.83;;;1.77;;
51124;SDS011;37163;55.556;39.108;2023-12-22T10:55:19;4.22;;;2.00;;
51124;SDS011;37163;55.556;39.108;2023-12-22T10:57:47;4.22;;;2.15;;
51124;SDS011;37163;55.556;39.108;2023-12-22T11:00:16;4.13;;;1.90;;
51124;SDS011;37163;55.556;39.108;2023-12-22T11:02:42;5.78;;;2.60;;
51124;SDS011;37163;55.556;39.108;2023-12-22T11:05:10;3.83;;;1.83;;
51124;SDS011;37163;55.556;39.108;2023-12-22T11:07:36;5.55;;;3.05;;
51124;SDS011;37163;55.556;39.108;2023-12-22T11:10:05;5.13;;;2.53;;
51124;SDS011;37163;55.556;39.108;2023-12-22T11:12:33;4.78;;;2.70;;
51124;SDS011;37163;55.556;39.108;2023-12-22T11:15:04;4.20;;;2.22;;
51124;SDS011;37163;55.556;39.108;2023-12-22T11:17:33;5.13;;;1.90;;
51124;SDS011;37163;55.556;39.108;2023-12-22T11:19:59;3.38;;;1.58;;
51124;SDS011;37163;55.556;39.108;2023-12-22T11:22:25;4.10;;;1.95;;
51124;SDS011;37163;55.556;39.108;2023-12-22T11:24:51;2.83;;;1.10;;
51124;SDS011;37163;55.556;39.108;2023-12-22T11:27:17;3.20;;;1.55;;
51124;SDS011;37163;55.556;39.108;2023-12-22T11:29:45;1.60;;;1.05;;
51124;SDS011;37163;55.556;39.108;2023-12-22T11:32:10;3.25;;;2.00;;
51124;SDS011;37163;55.556;39.108;2023-12-22T11:34:36;3.65;;;2.30;;
51124;SDS011;37163;55.556;39.108;2023-12-22T11:37:03;3.50;;;1.85;;
51124;SDS011;37163;55.556;39.108;2023-12-22T11:39:29;2.78;;;1.52;;
51124;SDS011;37163;55.556;39.108;2023-12-22T11:41:55;3.03;;;1.65;;
51124;SDS011;37163;55.556;39.108;2023-12-22T11:44:22;5.63;;;2.35;;
51124;SDS011;37163;55.556;39.108;2023-12-22T11:46:49;4.38;;;2.10;;
51124;SDS011;37163;55.556;39.108;2023-12-22T11:49:14;3.30;;;2.00;;
51124;SDS011;37163;55.556;39.108;2023-12-22T11:51:40;3.53;;;1.75;;
51124;SDS011;37163;55.556;39.108;2023-12-22T11:54:51;3.20;;;1.60;;
51124;SDS011;37163;55.556;39.108;2023-12-22T11:56:51;2.42;;;1.23;;
51124;SDS011;37163;55.556;39.108;2023-12-22T11:59:17;1.15;;;0.88;;
51124;SDS011;37163;55.556;39.108;2023-12-22T12:01:43;2.35;;;1.05;;
51124;SDS011;37163;55.556;39.108;2023-12-22T12:04:08;2.17;;;1.40;;
51124;SDS011;37163;55.556;39.108;2023-12-22T12:06:34;3.53;;;1.95;;
51124;SDS011;37163;55.556;39.108;2023-12-22T12:09:06;2.33;;;1.20;;
51124;SDS011;37163;55.556;39.108;2023-12-22T12:14:22;3.92;;;1.88;;
51124;SDS011;37163;55.556;39.108;2023-12-22T12:16:48;2.33;;;1.15;;
51124;SDS011;37163;55.556;39.108;2023-12-22T12:19:14;3.05;;;1.10;;
51124;SDS011;37163;55.556;39.108;2023-12-22T12:21:39;1.92;;;0.93;;
51124;SDS011;37163;55.556;39.108;2023-12-22T12:24:05;1.50;;;0.73;;
51124;SDS011;37163;55.556;39.108;2023-12-22T12:26:32;1.08;;;0.60;;
51124;SDS011;37163;55.556;39.108;2023-12-22T12:28:58;1.48;;;0.70;;
51124;SDS011;37163;55.556;39.108;2023-12-22T12:31:35;1.33;;;0.70;;
51124;SDS011;37163;55.556;39.108;2023-12-22T12:34:01;0.80;;;0.60;;
51124;SDS011;37163;55.556;39.108;2023-12-22T12:36:27;2.22;;;1.10;;
51124;SDS011;37163;55.556;39.108;2023-12-22T12:38:54;2.30;;;1.23;;
51124;SDS011;37163;55.556;39.108;2023-12-22T12:41:23;2.33;;;1.00;;
51124;SDS011;37163;55.556;39.108;2023-12-22T12:43:52;2.15;;;1.00;;
51124;SDS011;37163;55.556;39.108;2023-12-22T12:46:18;2.67;;;1.30;;
51124;SDS011;37163;55.556;39.108;2023-12-22T12:48:44;3.72;;;1.60;;
51124;SDS011;37163;55.556;39.108;2023-12-22T12:51:09;2.05;;;1.30;;
51124;SDS011;37163;55.556;39.108;2023-12-22T12:53:36;2.38;;;1.05;;
51124;SDS011;37163;55.556;39.108;2023-12-22T12:56:03;2.38;;;1.05;;
51124;SDS011;37163;55.556;39.108;2023-12-22T12:58:32;3.53;;;2.00;;
51124;SDS011;37163;55.556;39.108;2023-12-22T13:01:04;3.45;;;1.77;;
51124;SDS011;37163;55.556;39.108;2023-12-22T13:03:30;3.33;;;1.65;;
51124;SDS011;37163;55.556;39.108;2023-12-22T13:06:06;3.15;;;1.88;;
51124;SDS011;37163;55.556;39.108;2023-12-22T13:08:32;2.90;;;1.25;;
51124;SDS011;37163;55.556;39.108;2023-12-22T13:11:00;3.13;;;1.70;;
51124;SDS011;37163;55.556;39.108;2023-12-22T13:13:29;3.45;;;1.90;;
51124;SDS011;37163;55.556;39.108;2023-12-22T13:15:55;3.53;;;2.25;;
51124;SDS011;37163;55.556;39.108;2023-12-22T13:18:21;5.00;;;2.53;;
51124;SDS011;37163;55.556;39.108;2023-12-22T13:20:47;2.58;;;1.52;;
51124;SDS011;37163;55.556;39.108;2023-12-22T13:23:16;4.60;;;1.98;;
51124;SDS011;37163;55.556;39.108;2023-12-22T13:25:42;3.63;;;1.73;;
51124;SDS011;37163;55.556;39.108;2023-12-22T13:28:08;4.68;;;2.08;;
51124;SDS011;37163;55.556;39.108;2023-12-22T13:30:37;3.67;;;1.60;;
51124;SDS011;37163;55.556;39.108;2023-12-22T13:33:06;3.88;;;1.88;;
51124;SDS011;37163;55.556;39.108;2023-12-22T13:35:32;4.43;;;2.15;;
51124;SDS011;37163;55.556;39.108;2023-12-22T13:37:58;4.00;;;2.00;;
51124;SDS011;37163;55.556;39.108;2023-12-22T13:40:24;2.65;;;1.50;;
51124;SDS011;37163;55.556;39.108;2023-12-22T13:42:54;4.85;;;2.42;;
51124;SDS011;37163;55.556;39.108;2023-12-22T13:45:20;4.95;;;2.60;;
51124;SDS011;37163;55.556;39.108;2023-12-22T13:47:45;4.68;;;2.47;;
51124;SDS011;37163;55.556;39.108;2023-12-22T13:50:15;3.83;;;2.13;;
51124;SDS011;37163;55.556;39.108;2023-12-22T13:52:41;4.75;;;3.00;;
51124;SDS011;37163;55.556;39.108;2023-12-22T13:55:09;2.78;;;1.73;;
51124;SDS011;37163;55.556;39.108;2023-12-22T13:57:35;4.25;;;2.13;;
51124;SDS011;37163;55.556;39.108;2023-12-22T14:00:01;5.22;;;2.10;;
51124;SDS011;37163;55.556;39.108;2023-12-22T14:02:30;4.13;;;2.00;;
51124;SDS011;37163;55.556;39.108;2023-12-22T14:04:55;4.18;;;2.10;;
51124;SDS011;37163;55.556;39.108;2023-12-22T14:07:21;3.17;;;1.48;;
51124;SDS011;37163;55.556;39.108;2023-12-22T14:09:46;2.90;;;1.40;;
51124;SDS011;37163;55.556;39.108;2023-12-22T14:12:12;5.22;;;2.17;;
51124;SDS011;37163;55.556;39.108;2023-12-22T14:14:38;4.00;;;1.83;;
51124;SDS011;37163;55.556;39.108;2023-12-22T14:17:04;3.35;;;1.70;;
51124;SDS011;37163;55.556;39.108;2023-12-22T14:19:29;3.45;;;1.73;;
51124;SDS011;37163;55.556;39.108;2023-12-22T14:21:55;2.60;;;1.50;;
51124;SDS011;37163;55.556;39.108;2023-12-22T14:24:21;2.55;;;1.48;;
51124;SDS011;37163;55.556;39.108;2023-12-22T14:26:55;4.75;;;2.30;;
51124;SDS011;37163;55.556;39.108;2023-12-22T14:29:21;2.85;;;1.73;;
51124;SDS011;37163;55.556;39.108;2023-12-22T14:31:50;3.13;;;1.60;;
51124;SDS011;37163;55.556;39.108;2023-12-22T14:34:17;3.67;;;1.60;;
51124;SDS011;37163;55.556;39.108;2023-12-22T14:36:43;3.45;;;1.70;;
51124;SDS011;37163;55.556;39.108;2023-12-22T14:39:09;2.42;;;1.20;;